Time;durP1;ratioP1;P1;durP2;ratioP2;P2;SDS_P1;SDS_P2;PMS_P1;PMS_P2;Temp;Humidity;BMP_temperature;BMP_pressure;BME280_temperature;BME280_humidity;BME280_pressure;Samples;Min_cycle;Max_cycle;Signal;HPM_P1;HPM_P2
2021/08/07 00:01:59;;;;;;;7.12;2.67;;;;;;;;;;4360228;33;20205;-79
2021/08/07 00:04:26;;;;;;;6.68;2.80;;;;;;;;;;4360573;32;20162;-80
2021/08/07 00:06:56;;;;;;;7.95;3.15;;;;;;;;;;4360344;32;20201;-79
2021/08/07 00:09:25;;;;;;;8.65;2.97;;;;;;;;;;4362215;32;20589;-81
2021/08/07 00:11:50;;;;;;;10.13;3.20;;;;;;;;;;4360337;32;20685;-80
2021/08/07 00:14:20;;;;;;;9.57;3.12;;;;;;;;;;4360574;33;20233;-79
2021/08/07 00:16:46;;;;;;;7.22;2.90;;;;;;;;;;4372919;32;20619;-81
2021/08/07 00:22:09;;;;;;;8.43;3.20;;;;;;;;;;4355356;33;20158;-80
2021/08/07 00:24:45;;;;;;;8.45;3.17;;;;;;;;;;4372408;32;20169;-81
2021/08/07 00:27:10;;;;;;;8.85;3.45;;;;;;;;;;4357915;33;20288;-81
2021/08/07 00:29:38;;;;;;;9.02;3.45;;;;;;;;;;4351505;32;20518;-80
2021/08/07 00:32:04;;;;;;;14.10;3.53;;;;;;;;;;4347347;33;20597;-80
2021/08/07 00:34:31;;;;;;;10.45;3.10;;;;;;;;;;4359770;33;20224;-80
2021/08/07 00:37:08;;;;;;;;;;;;;;;;;;;;;
2021/08/07 00:39:34;;;;;;;10.25;3.25;;;;;;;;;;4359012;33;20159;-80
2021/08/07 00:42:00;;;;;;;9.20;3.50;;;;;;;;;;4361181;32;20163;-79
2021/08/07 00:44:25;;;;;;;9.52;3.40;;;;;;;;;;4348003;33;20490;-79
2021/08/07 00:47:03;;;;;;;;;;;;;;;;;;;;;
2021/08/07 00:49:29;;;;;;;11.20;3.20;;;;;;;;;;4348367;33;20182;-80
2021/08/07 00:51:54;;;;;;;9.18;3.17;;;;;;;;;;4359755;32;20155;-80
2021/08/07 00:54:20;;;;;;;8.32;2.92;;;;;;;;;;4347375;33;20706;-79
2021/08/07 00:56:45;;;;;;;10.60;2.90;;;;;;;;;;4359588;32;20181;-80
2021/08/07 00:59:13;;;;;;;12.10;3.10;;;;;;;;;;4360919;32;20132;-80
2021/08/07 01:01:42;;;;;;;8.90;2.80;;;;;;;;;;4346676;33;20234;-79
2021/08/07 01:04:11;;;;;;;10.77;3.40;;;;;;;;;;4359413;33;20163;-79
2021/08/07 01:06:44;;;;;;;9.88;3.20;;;;;;;;;;4358420;32;20189;-79
2021/08/07 01:09:34;;;;;;;11.68;3.08;;;;;;;;;;4350794;32;20186;-79
2021/08/07 01:12:02;;;;;;;11.32;3.50;;;;;;;;;;4339224;33;20185;-78
2021/08/07 01:14:37;;;;;;;10.85;3.12;;;;;;;;;;4346894;33;20276;-78
2021/08/07 01:17:04;;;;;;;12.80;3.10;;;;;;;;;;4347104;33;20150;-78
2021/08/07 01:19:36;;;;;;;10.75;3.03;;;;;;;;;;4346613;32;20163;-78
2021/08/07 01:22:04;;;;;;;11.73;3.17;;;;;;;;;;4361255;32;20135;-78
2021/08/07 01:24:36;;;;;;;17.12;3.58;;;;;;;;;;4360794;32;20226;-78
2021/08/07 01:27:25;;;;;;;9.68;3.42;;;;;;;;;;4371055;32;20166;-78
2021/08/07 01:29:52;;;;;;;10.57;4.12;;;;;;;;;;4359853;32;20198;-78
2021/08/07 01:32:21;;;;;;;8.02;3.40;;;;;;;;;;4356653;33;20190;-78
2021/08/07 01:34:46;;;;;;;12.13;3.65;;;;;;;;;;4360731;32;20139;-78
2021/08/07 01:37:13;;;;;;;12.77;3.80;;;;;;;;;;4370793;32;20202;-78
2021/08/07 01:39:43;;;;;;;12.75;3.72;;;;;;;;;;4355257;33;20204;-78
2021/08/07 01:42:09;;;;;;;8.90;3.55;;;;;;;;;;4360185;32;20159;-78
2021/08/07 01:44:35;;;;;;;10.15;3.67;;;;;;;;;;4354060;33;20288;-78
2021/08/07 01:47:04;;;;;;;14.73;4.25;;;;;;;;;;4343908;32;20198;-78
2021/08/07 01:49:34;;;;;;;15.88;4.20;;;;;;;;;;4349941;33;20167;-78
2021/08/07 01:52:03;;;;;;;12.52;4.28;;;;;;;;;;4359422;32;20240;-79
2021/08/07 01:54:33;;;;;;;10.55;4.05;;;;;;;;;;4349935;33;20498;-78
2021/08/07 01:57:00;;;;;;;16.87;4.62;;;;;;;;;;4367772;32;20635;-78
2021/08/07 01:59:26;;;;;;;14.35;4.87;;;;;;;;;;4357401;32;20213;-78
2021/08/07 02:01:51;;;;;;;12.85;4.68;;;;;;;;;;4369105;32;20163;-78
2021/08/07 02:04:18;;;;;;;14.35;5.10;;;;;;;;;;4358624;33;20620;-78
2021/08/07 02:06:44;;;;;;;14.45;4.75;;;;;;;;;;4348180;32;20325;-78
2021/08/07 02:09:26;;;;;;;14.80;4.95;;;;;;;;;;4359015;33;20191;-78
2021/08/07 02:12:00;;;;;;;14.98;4.00;;;;;;;;;;4360458;32;20484;-78
2021/08/07 02:14:27;;;;;;;13.62;4.82;;;;;;;;;;4358788;33;20630;-78
2021/08/07 02:17:02;;;;;;;14.93;5.15;;;;;;;;;;4366167;32;20575;-78
2021/08/07 02:19:28;;;;;;;10.05;4.78;;;;;;;;;;4360302;33;20157;-78
2021/08/07 02:22:03;;;;;;;11.23;4.57;;;;;;;;;;4358172;33;20147;-78
2021/08/07 02:24:29;;;;;;;13.98;5.03;;;;;;;;;;4347739;33;20163;-78
2021/08/07 02:26:55;;;;;;;10.65;4.35;;;;;;;;;;4359756;32;20179;-78
2021/08/07 02:29:39;;;;;;;11.90;5.40;;;;;;;;;;4360280;32;20217;-78
2021/08/07 02:32:05;;;;;;;12.55;4.95;;;;;;;;;;4362839;33;20140;-78
2021/08/07 02:34:31;;;;;;;16.00;4.97;;;;;;;;;;4349472;33;20195;-78
2021/08/07 02:37:12;;;;;;;;;;;;;;;;;;;;;
2021/08/07 02:42:30;;;;;;;13.52;5.60;;;;;;;;;;4362374;33;20639;-78
2021/08/07 02:44:59;;;;;;;15.68;5.80;;;;;;;;;;4348991;33;20612;-78
2021/08/07 02:47:31;;;;;;;14.98;6.28;;;;;;;;;;4349245;33;20612;-78
2021/08/07 02:49:56;;;;;;;13.00;6.80;;;;;;;;;;4349844;33;20515;-78
2021/08/07 02:52:21;;;;;;;14.85;6.07;;;;;;;;;;4348841;33;20186;-78
2021/08/07 02:54:48;;;;;;;15.70;6.12;;;;;;;;;;4349320;33;20159;-79
2021/08/07 02:57:13;;;;;;;15.00;6.32;;;;;;;;;;4348705;33;20201;-78
2021/08/07 02:59:39;;;;;;;14.35;6.43;;;;;;;;;;4354549;32;20163;-79
2021/08/07 03:02:09;;;;;;;13.85;6.07;;;;;;;;;;4348182;33;20289;-79
2021/08/07 03:04:43;;;;;;;16.85;6.25;;;;;;;;;;4373125;32;20155;-78
2021/08/07 03:07:08;;;;;;;14.30;5.75;;;;;;;;;;4361250;32;20197;-79
2021/08/07 03:09:34;;;;;;;16.45;6.12;;;;;;;;;;4361015;32;20652;-79
2021/08/07 03:12:02;;;;;;;14.32;6.00;;;;;;;;;;4360960;33;20163;-78
2021/08/07 03:14:53;;;;;;;13.65;6.10;;;;;;;;;;4361017;32;20158;-78
2021/08/07 03:17:19;;;;;;;11.43;5.57;;;;;;;;;;4367732;32;20163;-79
2021/08/07 03:19:47;;;;;;;13.90;5.82;;;;;;;;;;4360860;33;20182;-79
2021/08/07 03:22:13;;;;;;;12.43;5.90;;;;;;;;;;4352148;32;20159;-79
2021/08/07 03:24:38;;;;;;;14.20;5.43;;;;;;;;;;4348517;33;20218;-78
2021/08/07 03:27:04;;;;;;;14.93;5.43;;;;;;;;;;4348176;33;20238;-79
2021/08/07 03:29:29;;;;;;;13.73;5.40;;;;;;;;;;4348359;33;20225;-78
2021/08/07 03:31:54;;;;;;;14.65;5.93;;;;;;;;;;4348436;33;20226;-79
2021/08/07 03:34:20;;;;;;;9.75;4.60;;;;;;;;;;4348147;33;20268;-79
2021/08/07 03:36:45;;;;;;;14.48;5.62;;;;;;;;;;4348296;33;20159;-78
2021/08/07 03:39:11;;;;;;;10.35;5.22;;;;;;;;;;4348299;33;20188;-79
2021/08/07 03:41:36;;;;;;;14.98;5.15;;;;;;;;;;4354079;32;20167;-79
2021/08/07 03:44:09;;;;;;;10.77;5.00;;;;;;;;;;4348160;33;20201;-78
2021/08/07 03:46:34;;;;;;;14.05;5.65;;;;;;;;;;4354180;33;20163;-79
2021/08/07 03:49:02;;;;;;;14.30;5.78;;;;;;;;;;4360547;32;20240;-78
2021/08/07 03:51:30;;;;;;;13.15;5.57;;;;;;;;;;4360614;32;20618;-79
2021/08/07 03:54:14;;;;;;;;;;;;;;;;;;;;;
2021/08/07 03:56:40;;;;;;;14.98;5.57;;;;;;;;;;4361888;33;20201;-79
2021/08/07 04:00:01;;;;;;;14.38;5.07;;;;;;;;;;4357483;32;20167;-79
2021/08/07 04:02:02;;;;;;;13.68;5.57;;;;;;;;;;4355488;33;20186;-79
2021/08/07 04:04:59;;;;;;;14.87;4.97;;;;;;;;;;4347822;33;20156;-79
2021/08/07 04:07:25;;;;;;;12.52;4.82;;;;;;;;;;4331707;33;20159;-79
2021/08/07 04:09:56;;;;;;;13.25;4.78;;;;;;;;;;4364932;32;20209;-79
2021/08/07 04:12:42;;;;;;;11.48;5.03;;;;;;;;;;4372485;32;20167;-79
2021/08/07 04:15:11;;;;;;;10.52;4.70;;;;;;;;;;4359394;32;20474;-78
2021/08/07 04:18:03;;;;;;;;;;;;;;;;;;;;;
2021/08/07 04:20:54;;;;;;;;;;;;;;;;;;;;;
2021/08/07 04:23:40;;;;;;;14.45;3.95;;;;;;;;;;4361325;32;20178;-78
2021/08/07 04:26:17;;;;;;;;;;;;;;;;;;;;;
2021/08/07 04:28:42;;;;;;;10.80;4.43;;;;;;;;;;4360797;32;20197;-79
2021/08/07 04:31:31;;;;;;;15.02;5.03;;;;;;;;;;4347570;33;20150;-80
2021/08/07 04:33:57;;;;;;;10.77;4.97;;;;;;;;;;4346967;33;20163;-79
2021/08/07 04:36:23;;;;;;;13.52;5.22;;;;;;;;;;4347228;33;20662;-79
2021/08/07 04:38:57;;;;;;;13.95;5.47;;;;;;;;;;4333613;33;20163;-79
2021/08/07 04:41:22;;;;;;;16.77;5.15;;;;;;;;;;4347394;33;20163;-78
2021/08/07 04:43:47;;;;;;;14.90;5.53;;;;;;;;;;4347701;33;20205;-78
2021/08/07 04:46:23;;;;;;;16.05;6.20;;;;;;;;;;4346967;33;20212;-78
2021/08/07 04:48:54;;;;;;;15.38;5.60;;;;;;;;;;4347127;33;20158;-78
2021/08/07 04:54:11;;;;;;;16.83;6.80;;;;;;;;;;4360330;32;20151;-78
2021/08/07 04:56:37;;;;;;;12.35;5.85;;;;;;;;;;4343128;33;20171;-78
2021/08/07 04:59:09;;;;;;;13.52;6.05;;;;;;;;;;4342414;33;20163;-78
2021/08/07 05:01:45;;;;;;;14.25;5.75;;;;;;;;;;4346911;33;20178;-78
2021/08/07 05:04:10;;;;;;;13.52;6.20;;;;;;;;;;4347369;33;20240;-78
2021/08/07 05:06:46;;;;;;;12.57;5.65;;;;;;;;;;4360650;32;20192;-78
2021/08/07 05:09:14;;;;;;;11.90;6.32;;;;;;;;;;4346924;33;20181;-78
2021/08/07 05:11:55;;;;;;;14.15;6.78;;;;;;;;;;4346438;33;20185;-79
2021/08/07 05:14:23;;;;;;;19.42;6.78;;;;;;;;;;4346806;33;20202;-79
2021/08/07 05:16:51;;;;;;;15.45;6.60;;;;;;;;;;4359580;32;20494;-78
2021/08/07 05:19:22;;;;;;;12.80;7.03;;;;;;;;;;4346867;33;20150;-78
2021/08/07 05:24:32;;;;;;;13.60;6.93;;;;;;;;;;4354673;33;20147;-79
2021/08/07 05:27:03;;;;;;;13.13;6.87;;;;;;;;;;4347078;33;20504;-79
2021/08/07 05:29:37;;;;;;;14.87;7.00;;;;;;;;;;4360954;32;20182;-79
2021/08/07 05:32:03;;;;;;;17.33;6.65;;;;;;;;;;4346858;33;20150;-78
2021/08/07 05:34:28;;;;;;;13.13;6.55;;;;;;;;;;4347380;33;20611;-78
2021/08/07 05:36:55;;;;;;;13.23;5.90;;;;;;;;;;4359954;32;20178;-78
2021/08/07 05:39:21;;;;;;;12.60;6.62;;;;;;;;;;4358906;33;20538;-78
2021/08/07 05:41:59;;;;;;;13.70;6.28;;;;;;;;;;4358891;32;20155;-78
2021/08/07 05:44:33;;;;;;;15.85;6.18;;;;;;;;;;4359069;32;20178;-78
2021/08/07 05:46:58;;;;;;;9.40;5.90;;;;;;;;;;4359188;33;20158;-78
2021/08/07 05:49:24;;;;;;;12.63;5.62;;;;;;;;;;4359043;32;20276;-78
2021/08/07 05:51:58;;;;;;;10.32;4.85;;;;;;;;;;4361526;32;20194;-79
2021/08/07 05:54:23;;;;;;;9.55;4.47;;;;;;;;;;4372142;32;20150;-79
2021/08/07 05:56:48;;;;;;;12.13;4.35;;;;;;;;;;4359058;33;20159;-79
2021/08/07 05:59:14;;;;;;;9.98;3.95;;;;;;;;;;4358809;33;20185;-79
2021/08/07 06:01:39;;;;;;;10.52;4.40;;;;;;;;;;4358807;33;20187;-78
2021/08/07 06:04:12;;;;;;;12.52;4.80;;;;;;;;;;4359728;32;20160;-78
2021/08/07 06:06:37;;;;;;;9.73;4.35;;;;;;;;;;4362296;33;20250;-78
2021/08/07 06:09:05;;;;;;;9.65;3.87;;;;;;;;;;4362121;32;20485;-79
2021/08/07 06:11:51;;;;;;;7.40;3.58;;;;;;;;;;4362260;32;20699;-78
2021/08/07 06:14:16;;;;;;;10.07;3.60;;;;;;;;;;4363066;32;20163;-79
2021/08/07 06:16:42;;;;;;;11.98;3.58;;;;;;;;;;4361605;32;20212;-78
2021/08/07 06:19:10;;;;;;;9.10;3.37;;;;;;;;;;4362133;32;20615;-79
2021/08/07 06:21:38;;;;;;;8.18;3.10;;;;;;;;;;4362061;32;20218;-78
2021/08/07 06:24:04;;;;;;;7.55;3.12;;;;;;;;;;4373999;32;20197;-77
2021/08/07 06:26:32;;;;;;;6.10;2.78;;;;;;;;;;4361680;32;20163;-79
2021/08/07 06:28:57;;;;;;;9.45;3.10;;;;;;;;;;4361508;32;20244;-78
2021/08/07 06:31:23;;;;;;;5.00;2.65;;;;;;;;;;4360697;33;20595;-79
2021/08/07 06:33:48;;;;;;;7.07;2.40;;;;;;;;;;4349035;33;20166;-78
2021/08/07 06:36:13;;;;;;;5.35;2.25;;;;;;;;;;4348871;33;20235;-77
2021/08/07 06:38:39;;;;;;;7.90;2.35;;;;;;;;;;4349258;33;20158;-78
2021/08/07 06:41:05;;;;;;;4.80;2.30;;;;;;;;;;4349090;33;20156;-79
2021/08/07 06:43:37;;;;;;;8.55;2.20;;;;;;;;;;4349014;33;20532;-80
2021/08/07 06:46:04;;;;;;;6.70;2.00;;;;;;;;;;4361695;33;20181;-78
2021/08/07 06:48:30;;;;;;;9.35;2.37;;;;;;;;;;4348956;33;20554;-77
2021/08/07 06:51:07;;;;;;;6.45;2.20;;;;;;;;;;4348975;33;20178;-77
2021/08/07 06:53:34;;;;;;;10.15;2.70;;;;;;;;;;4361512;32;20155;-80
2021/08/07 06:55:59;;;;;;;5.90;2.20;;;;;;;;;;4357793;33;20246;-80
2021/08/07 06:58:24;;;;;;;5.85;2.33;;;;;;;;;;4359026;32;20151;-79
2021/08/07 07:00:50;;;;;;;5.95;2.25;;;;;;;;;;4360902;33;20564;-79
2021/08/07 07:03:15;;;;;;;4.95;2.20;;;;;;;;;;4361096;32;20162;-79
2021/08/07 07:05:41;;;;;;;9.13;2.30;;;;;;;;;;4349222;33;20224;-79
2021/08/07 07:08:06;;;;;;;6.20;2.25;;;;;;;;;;4348689;32;20162;-78
2021/08/07 07:10:31;;;;;;;6.18;2.00;;;;;;;;;;4348518;33;20159;-79
2021/08/07 07:13:00;;;;;;;8.30;2.12;;;;;;;;;;4348514;33;20550;-80
2021/08/07 07:15:25;;;;;;;5.18;2.03;;;;;;;;;;4348378;32;20163;-79
2021/08/07 07:17:50;;;;;;;5.15;1.83;;;;;;;;;;4348374;32;20193;-77
2021/08/07 07:20:20;;;;;;;8.77;2.50;;;;;;;;;;4348417;33;20155;-79
2021/08/07 07:22:46;;;;;;;7.97;2.65;;;;;;;;;;4348513;33;20182;-80
2021/08/07 07:25:15;;;;;;;5.12;2.10;;;;;;;;;;4349107;33;20151;-78
2021/08/07 07:27:44;;;;;;;4.75;2.12;;;;;;;;;;4356430;32;20626;-79
2021/08/07 07:30:19;;;;;;;8.18;2.22;;;;;;;;;;4352389;32;20499;-79
2021/08/07 07:32:54;;;;;;;7.32;2.72;;;;;;;;;;4358901;33;20162;-81
2021/08/07 07:35:29;;;;;;;9.48;2.22;;;;;;;;;;4362126;32;20649;-80
2021/08/07 07:37:55;;;;;;;6.68;2.33;;;;;;;;;;4360254;33;20213;-80
2021/08/07 07:40:20;;;;;;;8.30;2.37;;;;;;;;;;4360955;32;20269;-82
2021/08/07 07:42:46;;;;;;;7.20;2.58;;;;;;;;;;4360742;33;20156;-81
2021/08/07 07:45:11;;;;;;;7.18;2.42;;;;;;;;;;4361052;32;20167;-80
2021/08/07 07:47:39;;;;;;;8.38;2.75;;;;;;;;;;4360442;32;20182;-80
2021/08/07 07:50:07;;;;;;;4.35;2.40;;;;;;;;;;4360338;32;20585;-79
2021/08/07 07:52:32;;;;;;;7.32;2.10;;;;;;;;;;4360319;32;20178;-79
2021/08/07 07:55:00;;;;;;;5.47;2.35;;;;;;;;;;4347971;33;20167;-81
2021/08/07 07:57:28;;;;;;;6.55;2.20;;;;;;;;;;4362770;32;20232;-80
2021/08/07 08:00:02;;;;;;;6.62;2.40;;;;;;;;;;4359029;32;20499;-79
2021/08/07 08:02:28;;;;;;;8.60;2.60;;;;;;;;;;4358751;32;20197;-78
2021/08/07 08:04:53;;;;;;;5.50;2.37;;;;;;;;;;4360011;32;20515;-76
2021/08/07 08:07:18;;;;;;;7.47;2.20;;;;;;;;;;4360650;32;20220;-80
2021/08/07 08:10:01;;;;;;;5.57;2.12;;;;;;;;;;4362153;32;20458;-79
2021/08/07 08:12:26;;;;;;;6.22;2.33;;;;;;;;;;4360948;32;20226;-78
2021/08/07 08:14:51;;;;;;;9.23;2.45;;;;;;;;;;4360555;32;20163;-79
2021/08/07 08:17:20;;;;;;;7.40;2.33;;;;;;;;;;4354780;33;20155;-79
2021/08/07 08:19:48;;;;;;;7.78;2.40;;;;;;;;;;4360721;33;20155;-79
2021/08/07 08:22:13;;;;;;;4.28;2.25;;;;;;;;;;4360568;32;20164;-80
2021/08/07 08:24:38;;;;;;;7.70;2.17;;;;;;;;;;4360361;32;20514;-79
2021/08/07 08:27:06;;;;;;;5.00;1.80;;;;;;;;;;4360183;32;20167;-79
2021/08/07 08:29:32;;;;;;;5.62;2.00;;;;;;;;;;4360303;33;20197;-78
2021/08/07 08:31:57;;;;;;;6.40;1.70;;;;;;;;;;4360417;32;20503;-79
2021/08/07 08:34:22;;;;;;;9.63;2.42;;;;;;;;;;4360547;33;20588;-80
2021/08/07 08:36:55;;;;;;;6.07;1.80;;;;;;;;;;4360706;32;20193;-80
2021/08/07 08:39:21;;;;;;;7.57;1.80;;;;;;;;;;4360019;32;20190;-80
2021/08/07 08:41:49;;;;;;;6.55;1.92;;;;;;;;;;4359918;32;20186;-81
2021/08/07 08:44:14;;;;;;;5.45;2.08;;;;;;;;;;4346760;33;20214;-80
2021/08/07 08:46:43;;;;;;;4.50;1.77;;;;;;;;;;4360095;32;20217;-80
2021/08/07 08:49:28;;;;;;;6.43;1.87;;;;;;;;;;4359026;33;20571;-79
2021/08/07 08:51:59;;;;;;;4.80;1.67;;;;;;;;;;4342558;33;20309;-79
2021/08/07 08:54:24;;;;;;;5.70;1.73;;;;;;;;;;4359414;32;20151;-81
2021/08/07 08:56:53;;;;;;;5.22;1.80;;;;;;;;;;4347123;33;20707;-79
2021/08/07 08:59:21;;;;;;;4.82;1.55;;;;;;;;;;4359334;32;20181;-79
2021/08/07 09:02:02;;;;;;;5.25;1.48;;;;;;;;;;4359445;32;20167;-80
2021/08/07 09:04:33;;;;;;;4.75;1.55;;;;;;;;;;4357653;32;20186;-81
2021/08/07 09:07:01;;;;;;;6.15;2.05;;;;;;;;;;4344488;33;20284;-80
2021/08/07 09:09:50;;;;;;;4.32;1.60;;;;;;;;;;4358769;33;20493;-79
2021/08/07 09:12:18;;;;;;;5.37;1.35;;;;;;;;;;4367706;32;20611;-78
2021/08/07 09:14:45;;;;;;;4.45;1.90;;;;;;;;;;4346704;33;20188;-79
2021/08/07 09:17:20;;;;;;;8.48;2.10;;;;;;;;;;4359214;32;20162;-81
2021/08/07 09:20:12;;;;;;;6.15;1.95;;;;;;;;;;4359658;32;20516;-79
2021/08/07 09:22:44;;;;;;;6.40;1.87;;;;;;;;;;4344307;33;20159;-81
2021/08/07 09:25:16;;;;;;;4.30;2.05;;;;;;;;;;4356997;32;20502;-78
2021/08/07 09:27:42;;;;;;;6.30;2.12;;;;;;;;;;4343462;32;20576;-79
2021/08/07 09:30:22;;;;;;;8.75;3.03;;;;;;;;;;4358775;32;20268;-78
2021/08/07 09:32:55;;;;;;;7.62;2.35;;;;;;;;;;4359350;32;20163;-80
2021/08/07 09:35:27;;;;;;;8.05;2.85;;;;;;;;;;4357058;32;20202;-79
2021/08/07 09:38:14;;;;;;;5.65;2.25;;;;;;;;;;4364231;32;20174;-79
2021/08/07 09:40:39;;;;;;;6.45;2.15;;;;;;;;;;4360834;32;20517;-79
2021/08/07 09:43:08;;;;;;;7.32;2.42;;;;;;;;;;4346592;33;20615;-79
2021/08/07 09:45:36;;;;;;;5.25;2.50;;;;;;;;;;4358656;33;20205;-81
2021/08/07 09:48:03;;;;;;;7.53;2.97;;;;;;;;;;4358764;32;20318;-80
2021/08/07 09:51:07;;;;;;;10.15;3.28;;;;;;;;;;4358277;32;20651;-80
2021/08/07 10:03:20;;;;;;;6.15;3.33;;;;;;;;;;4299264;33;20161;-81
2021/08/07 10:06:00;;;;;;;7.03;3.37;;;;;;;;;;4298529;33;20607;-80
2021/08/07 10:15:02;;;;;;;;;;;;;;;;;;;;;
2021/08/07 10:17:49;;;;;;;8.50;5.20;;;;;;;;;;4274112;33;20149;-79
2021/08/07 10:20:20;;;;;;;10.77;5.10;;;;;;;;;;4321751;33;20167;-79
2021/08/07 10:22:58;;;;;;;8.00;5.00;;;;;;;;;;4331609;33;20322;-80
2021/08/07 10:25:29;;;;;;;9.98;5.95;;;;;;;;;;4343932;33;20152;-79
2021/08/07 10:28:20;;;;;;;8.52;5.57;;;;;;;;;;4343982;33;20175;-79
2021/08/07 10:30:45;;;;;;;9.07;5.72;;;;;;;;;;4325893;33;20516;-79
2021/08/07 10:33:25;;;;;;;8.65;5.32;;;;;;;;;;4343730;33;20190;-80
2021/08/07 10:36:02;;;;;;;7.80;5.18;;;;;;;;;;4328304;33;20187;-80
2021/08/07 10:38:46;;;;;;;9.63;5.03;;;;;;;;;;4328123;33;20226;-79
2021/08/07 10:41:12;;;;;;;6.78;3.97;;;;;;;;;;4327872;33;20209;-80
2021/08/07 10:43:55;;;;;;;9.18;3.50;;;;;;;;;;4338422;33;20159;-81
2021/08/07 10:46:37;;;;;;;6.65;3.60;;;;;;;;;;4342756;33;20194;-78
2021/08/07 10:49:06;;;;;;;8.82;3.33;;;;;;;;;;4342877;33;20258;-80
2021/08/07 10:51:33;;;;;;;7.18;3.30;;;;;;;;;;4343052;33;20198;-81
2021/08/07 10:54:04;;;;;;;4.80;2.30;;;;;;;;;;4345221;32;20487;-82
2021/08/07 10:56:29;;;;;;;5.62;2.72;;;;;;;;;;4345621;33;20225;-79
2021/08/07 10:58:58;;;;;;;6.90;2.65;;;;;;;;;;4345534;33;20648;-81
2021/08/07 11:01:27;;;;;;;5.43;2.00;;;;;;;;;;4359270;33;20233;-80
2021/08/07 11:04:03;;;;;;;3.12;1.85;;;;;;;;;;4348218;33;20220;-80
2021/08/07 11:06:48;;;;;;;6.60;2.10;;;;;;;;;;4361276;32;20182;-80
2021/08/07 11:09:30;;;;;;;4.37;1.90;;;;;;;;;;4358374;33;20683;-80
2021/08/07 11:12:10;;;;;;;4.60;1.95;;;;;;;;;;4361214;33;20185;-77
2021/08/07 11:15:14;;;;;;;6.35;2.30;;;;;;;;;;4360840;32;20511;-81
2021/08/07 11:17:41;;;;;;;4.18;2.00;;;;;;;;;;4318265;33;20167;-80
2021/08/07 11:20:34;;;;;;;4.53;1.95;;;;;;;;;;4317725;33;20156;-79
2021/08/07 11:22:59;;;;;;;4.78;2.03;;;;;;;;;;4335411;33;20635;-81
2021/08/07 11:25:45;;;;;;;3.85;1.75;;;;;;;;;;4366017;32;20162;-81
2021/08/07 11:28:11;;;;;;;2.83;1.35;;;;;;;;;;4360450;32;20175;-80
2021/08/07 11:30:39;;;;;;;2.87;1.67;;;;;;;;;;4355511;32;20239;-80
2021/08/07 11:33:15;;;;;;;3.45;1.42;;;;;;;;;;4338950;33;20285;-79
2021/08/07 11:35:45;;;;;;;6.30;1.58;;;;;;;;;;4373126;32;20283;-79
2021/08/07 11:38:15;;;;;;;2.35;1.27;;;;;;;;;;4360221;32;20276;-80
2021/08/07 11:40:56;;;;;;;6.82;1.45;;;;;;;;;;4358251;32;20245;-80
2021/08/07 11:43:27;;;;;;;4.87;1.45;;;;;;;;;;4360374;32;20260;-78
2021/08/07 11:45:57;;;;;;;3.75;1.40;;;;;;;;;;4351174;33;20190;-79
2021/08/07 11:48:26;;;;;;;6.40;1.50;;;;;;;;;;4360982;32;20151;-79
2021/08/07 11:50:52;;;;;;;2.60;1.33;;;;;;;;;;4359855;32;20203;-81
2021/08/07 11:53:19;;;;;;;3.75;1.35;;;;;;;;;;4346538;33;20166;-78
2021/08/07 11:55:45;;;;;;;3.28;1.40;;;;;;;;;;4335574;33;20242;-75
2021/08/07 11:58:15;;;;;;;3.30;1.37;;;;;;;;;;4350301;33;20167;-79
2021/08/07 12:00:41;;;;;;;3.22;1.10;;;;;;;;;;4332894;33;20152;-78
2021/08/07 12:03:15;;;;;;;3.25;1.00;;;;;;;;;;4345645;33;20627;-78
2021/08/07 12:05:50;;;;;;;2.65;1.10;;;;;;;;;;4357971;32;20202;-76
2021/08/07 12:08:15;;;;;;;4.10;1.40;;;;;;;;;;4360352;32;20189;-80
2021/08/07 12:10:48;;;;;;;4.10;1.27;;;;;;;;;;4345429;33;20206;-79
2021/08/07 12:13:31;;;;;;;3.83;1.00;;;;;;;;;;4360990;32;20194;-78
2021/08/07 12:16:01;;;;;;;2.35;0.90;;;;;;;;;;4346486;33;20151;-78
2021/08/07 12:18:37;;;;;;;2.53;1.02;;;;;;;;;;4346191;33;20139;-78
2021/08/07 12:21:02;;;;;;;5.82;1.17;;;;;;;;;;4332805;33;20163;-78
2021/08/07 12:23:40;;;;;;;2.42;1.20;;;;;;;;;;4346900;33;20158;-78
2021/08/07 12:26:06;;;;;;;1.37;1.05;;;;;;;;;;4357674;33;20159;-79
2021/08/07 12:28:33;;;;;;;3.55;1.37;;;;;;;;;;4359099;32;20193;-80
2021/08/07 12:31:01;;;;;;;2.53;1.17;;;;;;;;;;4353199;33;20609;-79
2021/08/07 12:33:27;;;;;;;6.05;1.40;;;;;;;;;;4359668;32;20186;-78
2021/08/07 12:35:53;;;;;;;4.53;1.15;;;;;;;;;;4359330;33;20162;-78
2021/08/07 12:38:19;;;;;;;3.40;1.20;;;;;;;;;;4360329;32;20229;-78
2021/08/07 12:40:45;;;;;;;4.25;1.27;;;;;;;;;;4358932;32;20160;-78
2021/08/07 12:43:14;;;;;;;5.43;1.33;;;;;;;;;;4359404;32;20210;-78
2021/08/07 12:45:39;;;;;;;7.03;1.40;;;;;;;;;;4360313;32;20200;-80
2021/08/07 12:48:05;;;;;;;7.85;2.78;;;;;;;;;;4346182;33;20162;-77
2021/08/07 12:50:30;;;;;;;5.47;1.30;;;;;;;;;;4358368;32;20209;-79
2021/08/07 12:52:56;;;;;;;4.35;1.30;;;;;;;;;;4358395;32;20151;-79
2021/08/07 12:55:23;;;;;;;3.78;1.35;;;;;;;;;;4358906;32;20531;-77
2021/08/07 12:57:48;;;;;;;3.35;1.17;;;;;;;;;;4358343;32;20508;-80
2021/08/07 13:00:14;;;;;;;3.62;1.30;;;;;;;;;;4347563;33;20186;-79
2021/08/07 13:02:40;;;;;;;4.18;1.20;;;;;;;;;;4345679;33;20281;-78
2021/08/07 13:05:05;;;;;;;6.32;1.30;;;;;;;;;;4359148;32;20208;-76
2021/08/07 13:07:31;;;;;;;3.67;1.27;;;;;;;;;;4358886;32;20217;-77
2021/08/07 13:10:15;;;;;;;3.58;1.20;;;;;;;;;;4358618;33;20199;-78
2021/08/07 13:12:44;;;;;;;2.78;1.10;;;;;;;;;;4358603;33;20240;-78
2021/08/07 13:15:10;;;;;;;4.55;1.25;;;;;;;;;;4358449;32;20592;-80
2021/08/07 13:17:41;;;;;;;2.10;1.02;;;;;;;;;;4347409;33;20178;-76
2021/08/07 13:20:11;;;;;;;3.95;1.25;;;;;;;;;;4345390;33;20198;-80
2021/08/07 13:23:00;;;;;;;3.87;1.20;;;;;;;;;;4360665;32;20122;-78
2021/08/07 13:25:25;;;;;;;7.75;1.50;;;;;;;;;;4346943;33;20185;-81
2021/08/07 13:27:51;;;;;;;3.58;1.40;;;;;;;;;;4346238;33;20245;-79
2021/08/07 13:30:19;;;;;;;3.08;1.02;;;;;;;;;;4348381;32;20226;-79
2021/08/07 13:32:45;;;;;;;2.72;1.08;;;;;;;;;;4358723;33;20631;-77
2021/08/07 13:35:11;;;;;;;1.85;0.90;;;;;;;;;;4358340;32;20159;-78
2021/08/07 13:37:40;;;;;;;4.25;1.00;;;;;;;;;;4346572;33;20229;-80
2021/08/07 13:40:16;;;;;;;6.22;1.40;;;;;;;;;;4346885;33;20570;-80
2021/08/07 13:42:41;;;;;;;4.65;1.08;;;;;;;;;;4347101;33;20244;-79
2021/08/07 13:45:08;;;;;;;2.55;0.88;;;;;;;;;;4347151;33;20155;-79
2021/08/07 13:47:33;;;;;;;3.00;1.15;;;;;;;;;;4360840;32;20202;-78
2021/08/07 13:49:58;;;;;;;2.80;0.80;;;;;;;;;;4359887;32;20158;-75
2021/08/07 13:52:23;;;;;;;2.37;1.10;;;;;;;;;;4346480;33;20181;-76
2021/08/07 13:54:49;;;;;;;3.15;1.10;;;;;;;;;;4346867;33;20177;-81
2021/08/07 13:57:14;;;;;;;2.47;0.95;;;;;;;;;;4346296;33;20500;-80
2021/08/07 13:59:47;;;;;;;4.62;1.23;;;;;;;;;;4343283;33;20523;-78
2021/08/07 14:02:12;;;;;;;5.30;1.45;;;;;;;;;;4346121;33;20580;-81
2021/08/07 14:04:38;;;;;;;2.92;1.12;;;;;;;;;;4344905;33;20161;-78
2021/08/07 14:07:04;;;;;;;2.17;1.10;;;;;;;;;;4343811;33;20568;-80
2021/08/07 14:09:32;;;;;;;1.90;0.95;;;;;;;;;;4343541;33;20611;-78
2021/08/07 14:11:58;;;;;;;4.15;1.10;;;;;;;;;;4344057;33;20156;-80
2021/08/07 14:14:23;;;;;;;2.60;1.08;;;;;;;;;;4343558;33;20182;-76
2021/08/07 14:16:50;;;;;;;3.97;1.10;;;;;;;;;;4343985;33;20160;-81
2021/08/07 14:19:17;;;;;;;2.95;0.90;;;;;;;;;;4343678;33;20598;-78
2021/08/07 14:21:43;;;;;;;1.87;0.80;;;;;;;;;;4345476;32;20170;-81
2021/08/07 14:24:11;;;;;;;4.43;1.02;;;;;;;;;;4356801;33;20185;-80
2021/08/07 14:26:37;;;;;;;4.62;0.90;;;;;;;;;;4354615;32;20233;-80
2021/08/07 14:29:12;;;;;;;4.03;1.27;;;;;;;;;;4361572;32;20532;-81
2021/08/07 14:31:38;;;;;;;2.83;1.02;;;;;;;;;;4361578;32;20151;-80
2021/08/07 14:34:03;;;;;;;4.50;1.10;;;;;;;;;;4361256;32;20181;-80
2021/08/07 14:36:28;;;;;;;3.95;1.20;;;;;;;;;;4362881;32;20147;-80
2021/08/07 14:38:53;;;;;;;3.05;1.15;;;;;;;;;;4361104;32;20159;-82
2021/08/07 14:41:19;;;;;;;2.47;1.00;;;;;;;;;;4349889;33;20179;-79
2021/08/07 14:43:44;;;;;;;2.78;0.80;;;;;;;;;;4358492;32;20189;-80
2021/08/07 14:46:13;;;;;;;3.55;1.10;;;;;;;;;;4361802;32;20218;-79
2021/08/07 14:48:38;;;;;;;5.28;1.23;;;;;;;;;;4361023;33;20168;-81
2021/08/07 14:51:04;;;;;;;3.12;1.30;;;;;;;;;;4361111;33;20155;-82
2021/08/07 14:53:29;;;;;;;2.62;1.02;;;;;;;;;;4360926;32;20186;-81
2021/08/07 14:55:57;;;;;;;2.83;1.00;;;;;;;;;;4360768;32;20605;-80
2021/08/07 14:58:23;;;;;;;3.72;1.73;;;;;;;;;;4347524;33;20155;-82
2021/08/07 15:00:49;;;;;;;3.28;1.60;;;;;;;;;;4366066;32;20197;-79
2021/08/07 15:03:14;;;;;;;4.53;1.30;;;;;;;;;;4356906;33;20237;-81
2021/08/07 15:05:40;;;;;;;3.72;1.15;;;;;;;;;;4354755;33;20185;-80
2021/08/07 15:08:05;;;;;;;4.80;1.73;;;;;;;;;;4347068;33;20163;-80
2021/08/07 15:10:31;;;;;;;3.25;1.30;;;;;;;;;;4360814;32;20194;-79
2021/08/07 15:12:56;;;;;;;3.40;1.12;;;;;;;;;;4349241;33;20166;-78
2021/08/07 15:15:22;;;;;;;7.87;2.17;;;;;;;;;;4360732;32;20191;-79
2021/08/07 15:17:47;;;;;;;5.18;1.50;;;;;;;;;;4346246;33;20155;-80
2021/08/07 15:20:12;;;;;;;6.78;2.10;;;;;;;;;;4334256;33;20156;-79
2021/08/07 15:22:38;;;;;;;3.65;1.58;;;;;;;;;;4350512;33;20143;-82
2021/08/07 15:25:04;;;;;;;6.18;2.20;;;;;;;;;;4351880;32;20234;-79
2021/08/07 15:27:29;;;;;;;5.55;1.90;;;;;;;;;;4340209;33;20171;-77
2021/08/07 15:30:24;;;;;;;5.90;2.05;;;;;;;;;;4349737;33;20171;-82